Time;durP1;ratioP1;P1;durP2;ratioP2;P2;SDS_P1;SDS_P2;PMS_P1;PMS_P2;Temp;Humidity;BMP_temperature;BMP_pressure;BME280_temperature;BME280_humidity;BME280_pressure;Samples;Min_cycle;Max_cycle;Signal;HPM_P1;HPM_P2
2023/03/12 00:00:43;;;;;;;2.10;0.60;;;0.90;99.90;;;;;;5026364;28;20120;-86
2023/03/12 00:03:09;;;;;;;1.67;0.40;;;1.00;99.90;;;;;;5009118;28;20172;-85
2023/03/12 00:05:42;;;;;;;1.60;0.40;;;1.00;99.90;;;;;;5011153;28;20091;-85
2023/03/12 00:08:08;;;;;;;2.47;0.43;;;0.90;99.90;;;;;;5022416;28;20458;-86
2023/03/12 00:10:37;;;;;;;1.77;0.50;;;0.90;99.90;;;;;;5035434;28;20114;-85
2023/03/12 00:13:02;;;;;;;1.05;0.30;;;1.00;99.90;;;;;;5035017;28;20643;-85
2023/03/12 00:15:28;;;;;;;1.27;0.40;;;1.00;99.90;;;;;;5015583;28;20111;-87
2023/03/12 00:17:53;;;;;;;1.30;0.40;;;1.00;99.90;;;;;;5021636;28;20056;-85
2023/03/12 00:20:20;;;;;;;1.30;0.40;;;1.00;99.90;;;;;;5031878;28;20030;-85
2023/03/12 00:22:46;;;;;;;1.15;0.40;;;1.00;99.90;;;;;;5018202;28;20105;-85
2023/03/12 00:25:15;;;;;;;1.17;0.40;;;1.00;99.90;;;;;;5038242;28;20065;-87
2023/03/12 00:27:41;;;;;;;1.98;0.40;;;1.10;99.90;;;;;;5024201;28;20045;-87
2023/03/12 00:30:09;;;;;;;1.65;0.40;;;1.00;99.90;;;;;;5009461;28;20025;-86
2023/03/12 00:32:36;;;;;;;3.25;0.40;;;1.00;99.90;;;;;;5043881;28;20496;-85
2023/03/12 00:35:03;;;;;;;1.63;0.40;;;1.10;99.90;;;;;;5039493;28;20090;-85
2023/03/12 00:37:29;;;;;;;1.33;0.43;;;1.20;99.90;;;;;;5041949;28;20043;-85
2023/03/12 00:39:54;;;;;;;1.17;0.40;;;1.20;99.90;;;;;;5009008;28;20115;-87
2023/03/12 00:42:20;;;;;;;1.63;0.73;;;1.20;99.90;;;;;;5018071;28;20039;-87
2023/03/12 00:44:46;;;;;;;1.95;0.40;;;1.20;99.90;;;;;;5032323;28;20519;-86
2023/03/12 00:47:12;;;;;;;2.33;0.40;;;1.20;99.90;;;;;;5011093;28;20095;-85
2023/03/12 00:49:38;;;;;;;1.35;0.45;;;1.20;99.90;;;;;;5011967;28;20033;-84
2023/03/12 00:52:04;;;;;;;1.75;0.40;;;1.20;99.90;;;;;;5035725;28;20032;-85
2023/03/12 00:54:30;;;;;;;1.83;0.40;;;1.20;99.90;;;;;;5017473;28;20091;-86
2023/03/12 00:56:56;;;;;;;2.00;0.40;;;1.20;99.90;;;;;;5034987;28;20045;-85
2023/03/12 00:59:22;;;;;;;1.10;0.50;;;1.20;99.90;;;;;;5023157;28;20497;-86
2023/03/12 01:01:48;;;;;;;1.48;0.30;;;1.30;99.90;;;;;;5017972;28;20037;-85
2023/03/12 01:04:16;;;;;;;1.52;0.50;;;1.20;99.90;;;;;;5027961;28;20025;-85
2023/03/12 01:06:42;;;;;;;1.38;0.40;;;1.30;99.90;;;;;;5012055;28;20029;-86
2023/03/12 01:09:08;;;;;;;1.65;0.40;;;1.20;99.90;;;;;;5018853;28;20111;-85
2023/03/12 01:11:35;;;;;;;4.97;0.60;;;1.30;99.90;;;;;;5054989;28;20053;-86
2023/03/12 01:14:02;;;;;;;2.53;0.40;;;1.30;99.90;;;;;;5015853;28;20041;-85
2023/03/12 01:16:29;;;;;;;1.92;0.40;;;1.40;99.90;;;;;;5023576;28;20394;-84
2023/03/12 01:18:56;;;;;;;1.58;0.40;;;1.40;99.90;;;;;;5026396;28;20033;-86
2023/03/12 01:21:22;;;;;;;1.23;0.40;;;1.40;99.90;;;;;;5027380;28;20116;-85
2023/03/12 01:23:49;;;;;;;1.95;0.50;;;1.50;99.90;;;;;;5020734;28;20040;-85
2023/03/12 01:26:14;;;;;;;2.92;0.50;;;1.50;99.90;;;;;;5040351;28;20474;-85
2023/03/12 01:28:40;;;;;;;1.58;0.40;;;1.50;99.90;;;;;;5056770;28;20033;-85
2023/03/12 01:31:07;;;;;;;2.33;0.45;;;1.50;99.90;;;;;;5013259;28;20025;-85
2023/03/12 01:33:33;;;;;;;2.03;0.40;;;1.50;99.90;;;;;;5013944;28;20036;-87
2023/03/12 01:35:59;;;;;;;1.88;0.50;;;1.50;99.90;;;;;;5019342;28;20151;-85
2023/03/12 01:38:24;;;;;;;1.13;0.30;;;1.50;99.90;;;;;;5031116;28;20068;-85
2023/03/12 01:40:50;;;;;;;1.80;0.40;;;1.50;99.90;;;;;;5024633;28;20030;-85
2023/03/12 01:43:35;;;;;;;1.65;0.40;;;1.40;99.90;;;;;;5011997;28;20100;-86
2023/03/12 01:46:28;;;;;;;2.55;0.40;;;1.40;99.90;;;;;;5010030;28;20156;-86
2023/03/12 01:49:07;;;;;;;1.83;0.40;;;1.40;99.90;;;;;;5031220;28;20567;-85
2023/03/12 01:51:41;;;;;;;2.45;0.95;;;1.40;99.90;;;;;;5019005;28;20028;-85
2023/03/12 01:54:20;;;;;;;1.35;0.30;;;1.30;99.90;;;;;;5037243;28;20025;-89
2023/03/12 01:56:47;;;;;;;2.57;0.60;;;1.40;99.90;;;;;;5009057;28;20120;-86
2023/03/12 01:59:40;;;;;;;1.23;0.40;;;1.40;99.90;;;;;;5023581;28;20039;-86
2023/03/12 02:02:07;;;;;;;1.92;0.40;;;1.40;99.90;;;;;;5024528;28;20467;-85
2023/03/12 02:04:34;;;;;;;1.40;0.30;;;1.40;99.90;;;;;;5020064;28;20030;-85
2023/03/12 02:07:04;;;;;;;1.40;0.30;;;1.30;99.90;;;;;;5037383;28;20030;-84
2023/03/12 02:09:32;;;;;;;3.50;0.30;;;1.30;99.90;;;;;;5038885;28;20032;-85
2023/03/12 02:11:58;;;;;;;1.23;0.30;;;1.40;99.90;;;;;;5043244;28;20080;-85
2023/03/12 02:14:24;;;;;;;1.33;0.40;;;1.40;99.90;;;;;;5038580;28;20030;-87
2023/03/12 02:16:52;;;;;;;1.00;0.30;;;1.30;99.90;;;;;;5052520;28;20029;-87
2023/03/12 02:19:36;;;;;;;1.02;0.30;;;1.40;99.90;;;;;;5034388;28;20060;-87
2023/03/12 02:22:03;;;;;;;1.40;0.30;;;1.40;99.90;;;;;;5009532;28;20033;-86
2023/03/12 02:25:08;;;;;;;1.25;0.30;;;1.30;99.90;;;;;;5036525;28;20029;-85
2023/03/12 02:27:36;;;;;;;1.10;0.30;;;1.30;99.90;;;;;;5012138;28;20478;-85
2023/03/12 02:30:04;;;;;;;1.02;0.30;;;1.20;99.90;;;;;;5036157;28;20026;-86
2023/03/12 02:32:36;;;;;;;1.90;0.28;;;1.30;99.90;;;;;;5027693;28;20116;-85
2023/03/12 02:35:02;;;;;;;1.05;0.30;;;1.30;99.90;;;;;;5033485;28;20108;-85
2023/03/12 02:37:28;;;;;;;0.88;0.30;;;1.30;99.90;;;;;;5030501;28;20543;-85
2023/03/12 02:40:06;;;;;;;1.05;0.30;;;1.40;99.90;;;;;;5036382;28;20053;-84
2023/03/12 02:42:32;;;;;;;1.17;0.22;;;1.30;99.90;;;;;;5012403;28;20025;-85
2023/03/12 02:44:59;;;;;;;1.00;0.22;;;1.30;99.90;;;;;;5025663;28;20028;-85
2023/03/12 02:47:25;;;;;;;1.67;0.20;;;1.40;99.90;;;;;;5031370;28;20066;-85
2023/03/12 02:49:51;;;;;;;0.90;0.20;;;1.40;99.90;;;;;;5016663;28;20030;-85
2023/03/12 02:52:17;;;;;;;1.55;0.30;;;1.50;99.90;;;;;;5038256;28;20080;-85
2023/03/12 02:54:43;;;;;;;1.23;0.30;;;1.40;99.90;;;;;;5037613;28;20027;-85
2023/03/12 02:57:16;;;;;;;1.25;0.30;;;1.50;99.90;;;;;;5021373;28;20486;-85
2023/03/12 02:59:42;;;;;;;1.20;0.20;;;1.50;99.90;;;;;;5039135;28;20071;-87
2023/03/12 03:02:08;;;;;;;0.88;0.30;;;1.50;99.90;;;;;;5025256;28;20111;-86
2023/03/12 03:04:34;;;;;;;0.90;0.30;;;1.60;99.90;;;;;;5022491;28;20029;-85
2023/03/12 03:07:00;;;;;;;1.25;0.30;;;1.50;99.90;;;;;;5030490;28;20354;-85
2023/03/12 03:09:26;;;;;;;0.73;0.20;;;1.60;99.90;;;;;;5008758;28;20037;-85
2023/03/12 03:11:52;;;;;;;1.02;0.22;;;1.60;99.90;;;;;;5031703;28;20501;-86
2023/03/12 03:14:18;;;;;;;1.25;0.30;;;1.70;99.90;;;;;;5035102;28;20029;-85
2023/03/12 03:16:47;;;;;;;1.05;0.30;;;1.70;99.90;;;;;;5034460;28;20013;-86
2023/03/12 03:19:13;;;;;;;0.90;0.30;;;1.70;99.90;;;;;;5018093;28;20127;-86
2023/03/12 03:21:38;;;;;;;1.33;0.20;;;1.70;99.90;;;;;;5011040;28;20033;-86
2023/03/12 03:24:04;;;;;;;2.15;0.20;;;1.70;99.90;;;;;;5026625;28;20025;-85
2023/03/12 03:26:30;;;;;;;0.80;0.25;;;1.70;99.90;;;;;;5036595;28;20116;-86
2023/03/12 03:28:56;;;;;;;1.95;0.30;;;1.70;99.90;;;;;;5018829;28;20116;-87
2023/03/12 03:31:21;;;;;;;2.30;1.00;;;1.70;99.90;;;;;;5038894;28;20387;-87
2023/03/12 03:33:48;;;;;;;1.02;0.30;;;1.80;99.90;;;;;;5011262;28;20039;-86
2023/03/12 03:36:14;;;;;;;1.00;0.20;;;1.80;99.90;;;;;;5023194;28;20021;-85
2023/03/12 03:38:48;;;;;;;1.60;0.40;;;1.80;99.90;;;;;;5013820;28;20037;-85
2023/03/12 03:41:17;;;;;;;1.92;0.30;;;1.90;99.90;;;;;;5016995;28;20044;-86
2023/03/12 03:43:43;;;;;;;2.28;0.30;;;1.80;99.90;;;;;;5024350;28;20021;-84
2023/03/12 03:46:10;;;;;;;1.27;0.40;;;1.80;99.90;;;;;;5038521;28;20041;-89
2023/03/12 03:48:39;;;;;;;4.03;1.20;;;1.90;99.90;;;;;;5025602;28;20086;-85
2023/03/12 03:51:08;;;;;;;2.38;0.45;;;2.00;99.90;;;;;;5023470;28;20025;-86
2023/03/12 03:53:35;;;;;;;1.35;0.50;;;1.90;99.90;;;;;;5010569;28;20034;-87
2023/03/12 03:56:06;;;;;;;2.10;0.60;;;1.90;99.90;;;;;;5024516;28;20392;-86
2023/03/12 03:58:34;;;;;;;3.40;0.50;;;1.90;99.90;;;;;;5044751;28;20511;-86
2023/03/12 04:01:01;;;;;;;2.25;0.40;;;2.00;99.90;;;;;;5010400;28;20099;-88
2023/03/12 04:03:27;;;;;;;1.52;0.50;;;1.90;99.90;;;;;;5007895;28;20025;-85
2023/03/12 04:06:00;;;;;;;2.17;0.50;;;1.90;99.90;;;;;;5016105;28;20026;-86
2023/03/12 04:08:27;;;;;;;2.45;0.60;;;1.90;99.90;;;;;;5017923;28;20026;-87
2023/03/12 04:10:54;;;;;;;1.95;0.50;;;1.90;99.90;;;;;;5018852;28;20029;-87
2023/03/12 04:13:20;;;;;;;2.65;0.70;;;1.90;99.90;;;;;;5044489;28;20026;-86
2023/03/12 04:15:51;;;;;;;2.75;0.70;;;1.80;99.90;;;;;;5019207;28;20402;-89
2023/03/12 04:18:18;;;;;;;1.17;0.60;;;1.80;99.90;;;;;;5004177;28;20071;-86
2023/03/12 04:20:44;;;;;;;1.70;0.50;;;1.80;99.90;;;;;;5025291;28;20071;-86
2023/03/12 04:23:10;;;;;;;1.52;0.50;;;1.70;99.90;;;;;;5011077;28;20034;-87
2023/03/12 04:25:36;;;;;;;2.25;0.50;;;1.70;99.90;;;;;;5018555;28;20477;-87
2023/03/12 04:28:03;;;;;;;1.98;0.50;;;1.70;99.90;;;;;;5046309;28;20397;-86
2023/03/12 04:30:28;;;;;;;1.40;0.40;;;1.70;99.90;;;;;;5026172;28;20025;-86
2023/03/12 04:32:54;;;;;;;1.55;0.50;;;1.70;99.90;;;;;;5020699;28;20481;-87
2023/03/12 04:35:20;;;;;;;1.60;0.50;;;1.60;99.90;;;;;;5022311;28;20025;-86
2023/03/12 04:37:45;;;;;;;2.95;0.50;;;1.60;99.90;;;;;;5021079;28;20037;-87
2023/03/12 04:40:12;;;;;;;1.63;0.40;;;1.70;99.90;;;;;;5012534;28;20136;-86
2023/03/12 04:42:38;;;;;;;1.40;0.40;;;1.70;99.90;;;;;;5044368;28;20488;-86
2023/03/12 04:45:05;;;;;;;1.25;0.40;;;1.60;99.90;;;;;;5026642;28;20026;-87
2023/03/12 04:47:33;;;;;;;2.40;0.50;;;1.60;99.90;;;;;;5034649;28;20032;-86
2023/03/12 04:49:59;;;;;;;0.82;0.30;;;1.60;99.90;;;;;;5022187;28;20033;-86
2023/03/12 04:52:26;;;;;;;2.08;0.30;;;1.60;99.90;;;;;;5028889;28;20060;-87
2023/03/12 04:54:53;;;;;;;2.03;0.52;;;1.70;99.90;;;;;;5008907;28;20029;-87
2023/03/12 04:57:19;;;;;;;1.50;0.40;;;1.70;99.90;;;;;;5034369;28;20021;-86
2023/03/12 04:59:45;;;;;;;1.92;0.60;;;1.70;99.90;;;;;;5023246;28;20406;-87
2023/03/12 05:02:11;;;;;;;1.23;0.40;;;1.70;99.90;;;;;;5030560;28;20485;-86
2023/03/12 05:04:37;;;;;;;0.70;0.30;;;1.80;99.90;;;;;;5013141;28;20033;-87
2023/03/12 05:07:03;;;;;;;1.85;0.30;;;1.80;99.90;;;;;;5026093;28;20079;-87
2023/03/12 05:09:28;;;;;;;2.45;0.50;;;1.80;99.90;;;;;;5027077;28;20124;-87
2023/03/12 05:11:54;;;;;;;2.53;0.47;;;1.90;99.90;;;;;;5016468;28;20377;-86
2023/03/12 05:14:21;;;;;;;2.75;0.40;;;1.90;99.90;;;;;;5022653;28;20025;-86
2023/03/12 05:16:47;;;;;;;4.03;0.70;;;1.90;99.90;;;;;;5019327;28;20033;-86
2023/03/12 05:19:13;;;;;;;1.23;0.30;;;1.90;99.90;;;;;;5022566;28;20033;-87
2023/03/12 05:21:41;;;;;;;1.70;0.30;;;1.90;99.90;;;;;;5045810;28;20029;-86
2023/03/12 05:24:08;;;;;;;2.47;0.50;;;1.90;99.90;;;;;;5029687;28;20116;-86
2023/03/12 05:26:34;;;;;;;2.80;0.40;;;1.90;99.90;;;;;;5011600;28;20544;-87
2023/03/12 05:29:13;;;;;;;2.20;0.47;;;1.90;99.90;;;;;;5021105;28;20108;-87
2023/03/12 05:31:39;;;;;;;2.95;0.50;;;1.90;99.90;;;;;;5038093;28;20017;-87
2023/03/12 05:34:07;;;;;;;1.35;0.40;;;1.90;99.90;;;;;;5013597;28;20021;-87
2023/03/12 05:36:37;;;;;;;1.50;0.40;;;1.90;99.90;;;;;;5044453;28;20382;-87
2023/03/12 05:39:04;;;;;;;1.75;0.43;;;2.00;99.90;;;;;;5026544;28;20187;-86
2023/03/12 05:41:32;;;;;;;1.10;0.60;;;2.00;99.90;;;;;;5021083;28;20057;-87
2023/03/12 05:44:04;;;;;;;3.75;0.38;;;2.00;99.90;;;;;;5026534;28;20025;-87
2023/03/12 05:46:30;;;;;;;1.13;0.35;;;2.00;99.90;;;;;;5009867;28;20112;-88
2023/03/12 05:48:57;;;;;;;1.20;0.40;;;2.00;99.90;;;;;;5013077;28;20032;-86
2023/03/12 05:51:23;;;;;;;1.15;0.30;;;2.00;99.90;;;;;;5020623;28;20026;-88
2023/03/12 05:53:49;;;;;;;1.35;0.40;;;2.00;99.90;;;;;;5023372;28;20096;-87
2023/03/12 05:56:17;;;;;;;1.50;0.40;;;2.10;99.90;;;;;;5019802;28;20025;-87
2023/03/12 05:58:43;;;;;;;4.18;0.50;;;2.10;99.90;;;;;;5040223;28;20034;-86
2023/03/12 06:01:16;;;;;;;1.60;0.40;;;2.00;99.90;;;;;;5022938;28;20033;-89
2023/03/12 06:03:42;;;;;;;3.38;0.50;;;2.10;99.90;;;;;;5016733;28;20025;-85
2023/03/12 06:06:09;;;;;;;2.22;0.50;;;2.10;99.90;;;;;;5024154;28;20033;-87
2023/03/12 06:08:34;;;;;;;2.58;0.35;;;2.10;99.90;;;;;;5030994;28;20025;-88
2023/03/12 06:11:00;;;;;;;2.47;0.70;;;2.10;99.90;;;;;;5027616;28;20034;-87
2023/03/12 06:13:27;;;;;;;1.73;0.30;;;2.10;99.90;;;;;;5033912;28;20034;-86
2023/03/12 06:15:54;;;;;;;2.42;0.40;;;2.10;99.90;;;;;;5032912;28;20026;-88
2023/03/12 06:18:19;;;;;;;2.03;0.40;;;2.10;99.90;;;;;;5021208;28;20032;-87
2023/03/12 06:20:45;;;;;;;2.00;0.43;;;2.10;99.90;;;;;;5021461;28;20025;-88
2023/03/12 06:23:11;;;;;;;1.08;0.30;;;2.20;99.90;;;;;;5020171;28;20025;-86
2023/03/12 06:25:37;;;;;;;6.18;0.60;;;2.20;99.90;;;;;;5012264;28;20473;-86
2023/03/12 06:28:03;;;;;;;1.40;0.47;;;2.20;99.90;;;;;;5011295;28;20037;-87
2023/03/12 06:30:29;;;;;;;1.20;0.30;;;2.30;99.90;;;;;;5013061;28;20025;-86
2023/03/12 06:32:54;;;;;;;1.88;0.45;;;2.30;99.90;;;;;;5009429;28;20035;-85
2023/03/12 06:35:20;;;;;;;1.17;0.40;;;2.30;99.90;;;;;;5035767;28;20049;-87
2023/03/12 06:37:46;;;;;;;2.53;0.50;;;2.30;99.90;;;;;;5009923;28;20402;-86
2023/03/12 06:40:11;;;;;;;1.77;0.50;;;2.30;99.90;;;;;;5020594;28;20033;-86
2023/03/12 06:42:38;;;;;;;4.82;0.98;;;2.40;99.90;;;;;;5032106;28;20351;-88
2023/03/12 06:45:04;;;;;;;2.92;0.50;;;2.40;99.90;;;;;;5025717;28;20388;-86
2023/03/12 06:47:30;;;;;;;2.45;0.80;;;2.40;99.90;;;;;;5008298;28;20029;-86
2023/03/12 06:49:56;;;;;;;2.38;0.68;;;2.30;99.90;;;;;;5019219;28;20056;-86
2023/03/12 06:52:22;;;;;;;2.83;0.60;;;2.30;99.90;;;;;;5022835;28;20051;-86
2023/03/12 06:54:47;;;;;;;1.55;0.50;;;2.30;99.90;;;;;;5010793;28;20029;-87
2023/03/12 06:57:15;;;;;;;2.08;0.50;;;2.30;99.90;;;;;;5045447;28;20683;-88
2023/03/12 06:59:41;;;;;;;1.50;0.47;;;2.20;99.90;;;;;;5033996;28;20041;-87
2023/03/12 07:02:10;;;;;;;2.45;0.82;;;2.20;99.90;;;;;;5008350;28;20033;-87
2023/03/12 07:04:36;;;;;;;3.45;0.57;;;2.20;99.90;;;;;;5023221;28;20032;-86
2023/03/12 07:07:01;;;;;;;3.13;0.40;;;2.20;99.90;;;;;;5020754;28;20028;-87
2023/03/12 07:09:27;;;;;;;3.78;0.85;;;2.30;99.90;;;;;;5027245;28;20037;-88
2023/03/12 07:11:54;;;;;;;2.50;0.50;;;2.30;99.90;;;;;;5009435;28;20028;-86
2023/03/12 07:14:20;;;;;;;1.92;0.60;;;2.30;99.90;;;;;;5035188;28;20029;-88
2023/03/12 07:16:46;;;;;;;1.90;0.52;;;2.30;99.90;;;;;;5029240;28;20075;-89
2023/03/12 07:19:12;;;;;;;3.78;0.75;;;2.30;99.90;;;;;;5022432;28;20081;-88
2023/03/12 07:21:38;;;;;;;3.80;0.47;;;2.30;99.90;;;;;;5020081;28;20412;-87
2023/03/12 07:24:06;;;;;;;1.75;0.50;;;2.30;99.90;;;;;;5049180;28;20108;-87
2023/03/12 07:26:34;;;;;;;1.50;0.50;;;2.30;99.90;;;;;;5013717;28;20046;-87
2023/03/12 07:29:00;;;;;;;2.60;0.65;;;2.40;99.90;;;;;;5023401;28;20393;-87
2023/03/12 07:31:25;;;;;;;2.13;0.60;;;2.50;99.90;;;;;;5021823;28;20470;-87
2023/03/12 07:33:51;;;;;;;3.53;0.60;;;2.60;99.90;;;;;;5020884;28;20047;-88
2023/03/12 07:36:17;;;;;;;2.35;0.60;;;2.70;99.90;;;;;;5021028;28;20087;-87
2023/03/12 07:38:43;;;;;;;4.07;0.90;;;2.80;99.90;;;;;;5026766;28;20045;-88
2023/03/12 07:41:08;;;;;;;2.70;0.80;;;2.90;99.90;;;;;;5009498;28;20079;-88
2023/03/12 07:43:34;;;;;;;2.33;0.70;;;3.00;99.90;;;;;;5019554;28;20116;-90
2023/03/12 07:46:00;;;;;;;2.03;0.50;;;3.00;99.90;;;;;;5010906;28;20029;-88
2023/03/12 07:48:26;;;;;;;2.40;0.50;;;3.10;99.90;;;;;;5021161;28;20063;-88
2023/03/12 07:50:51;;;;;;;1.40;0.50;;;3.10;99.90;;;;;;5017583;28;20033;-86
2023/03/12 07:53:17;;;;;;;4.10;0.50;;;3.10;99.90;;;;;;5034896;28;20047;-88
2023/03/12 07:55:45;;;;;;;5.28;0.55;;;3.00;99.90;;;;;;5022605;28;20079;-87
2023/03/12 07:58:11;;;;;;;3.00;0.60;;;3.00;99.90;;;;;;5034696;28;20087;-88
2023/03/12 08:00:38;;;;;;;3.78;0.70;;;3.00;99.90;;;;;;5011505;28;20045;-89
2023/03/12 08:03:03;;;;;;;4.07;0.80;;;3.00;99.90;;;;;;5023357;28;20036;-87
2023/03/12 08:05:29;;;;;;;3.88;1.10;;;3.00;99.90;;;;;;5012072;28;20025;-89
2023/03/12 08:07:55;;;;;;;3.40;1.10;;;3.00;99.90;;;;;;5020323;28;20056;-88
2023/03/12 08:10:21;;;;;;;3.38;0.88;;;3.00;99.90;;;;;;5020370;28;20469;-88
2023/03/12 08:12:48;;;;;;;4.68;0.90;;;3.00;99.90;;;;;;5025066;28;20025;-89
2023/03/12 08:15:14;;;;;;;2.67;1.05;;;3.00;99.90;;;;;;5028910;28;20038;-88
2023/03/12 08:17:40;;;;;;;2.70;0.80;;;3.00;99.90;;;;;;5017254;28;20038;-88
2023/03/12 08:20:08;;;;;;;2.45;0.77;;;3.10;99.90;;;;;;5021325;28;20075;-87
2023/03/12 08:22:38;;;;;;;3.15;0.60;;;3.00;99.90;;;;;;5022277;28;20032;-87
2023/03/12 08:25:05;;;;;;;2.20;0.55;;;3.10;99.90;;;;;;5022989;28;20025;-87
2023/03/12 08:27:31;;;;;;;2.97;0.70;;;3.10;99.90;;;;;;5022897;28;20045;-87
2023/03/12 08:29:57;;;;;;;3.30;0.63;;;3.10;99.90;;;;;;5039764;28;20029;-87
2023/03/12 08:32:24;;;;;;;3.25;0.80;;;3.10;99.90;;;;;;5032033;28;20455;-87
2023/03/12 08:34:50;;;;;;;5.00;1.02;;;3.10;99.90;;;;;;5026724;28;20554;-88
2023/03/12 08:37:15;;;;;;;3.60;0.68;;;3.10;99.90;;;;;;5012731;28;20057;-88
2023/03/12 08:39:41;;;;;;;4.32;0.85;;;3.10;99.90;;;;;;5040317;28;20052;-87
2023/03/12 08:42:07;;;;;;;3.20;0.90;;;3.20;99.90;;;;;;5019799;28;20269;-88
2023/03/12 08:44:32;;;;;;;3.42;0.88;;;3.20;99.90;;;;;;5023970;28;20037;-88
2023/03/12 08:46:58;;;;;;;4.00;0.75;;;3.20;99.90;;;;;;5015165;28;20025;-87
2023/03/12 08:49:24;;;;;;;2.28;0.70;;;3.20;99.90;;;;;;5042910;28;20473;-87
2023/03/12 08:51:53;;;;;;;3.72;1.00;;;3.20;99.90;;;;;;5014695;28;20029;-87
2023/03/12 08:54:19;;;;;;;3.13;0.77;;;3.30;99.90;;;;;;5036593;28;20026;-86
2023/03/12 08:56:50;;;;;;;3.15;1.15;;;3.30;99.90;;;;;;5030597;28;20029;-88
2023/03/12 08:59:16;;;;;;;2.35;0.90;;;3.30;99.90;;;;;;5029207;28;20044;-86
2023/03/12 09:01:42;;;;;;;3.67;0.80;;;3.40;99.90;;;;;;5015837;28;20029;-87
2023/03/12 09:04:08;;;;;;;2.22;0.68;;;3.40;99.90;;;;;;5025564;28;20471;-87
2023/03/12 09:06:34;;;;;;;2.13;0.80;;;3.40;99.90;;;;;;5012807;28;20075;-87
2023/03/12 09:09:03;;;;;;;2.72;0.93;;;3.50;99.90;;;;;;5033548;28;20324;-86
2023/03/12 09:11:32;;;;;;;1.80;0.65;;;3.50;99.90;;;;;;5019684;28;20470;-87
2023/03/12 09:13:58;;;;;;;1.77;0.80;;;3.60;99.90;;;;;;5010778;28;20080;-87
2023/03/12 09:16:24;;;;;;;2.42;0.80;;;3.60;99.90;;;;;;5045636;28;20056;-87
2023/03/12 09:18:50;;;;;;;2.08;0.85;;;3.70;99.90;;;;;;5022580;28;20041;-86
2023/03/12 09:21:15;;;;;;;1.88;0.95;;;3.70;99.90;;;;;;5047496;28;20055;-87
2023/03/12 09:23:41;;;;;;;2.80;0.88;;;3.70;99.90;;;;;;5025409;28;20159;-88
2023/03/12 09:26:13;;;;;;;2.50;0.90;;;3.70;99.90;;;;;;5021892;28;20025;-86
2023/03/12 09:28:39;;;;;;;2.63;0.80;;;3.70;99.90;;;;;;5022405;28;20052;-86
2023/03/12 09:31:05;;;;;;;2.50;1.10;;;3.80;99.90;;;;;;5037679;28;20127;-86
2023/03/12 09:33:33;;;;;;;2.20;1.30;;;3.80;99.90;;;;;;5031402;28;20040;-86
2023/03/12 09:36:00;;;;;;;3.00;1.27;;;3.90;99.90;;;;;;5018465;28;20030;-87
2023/03/12 09:38:27;;;;;;;4.35;1.63;;;3.90;99.90;;;;;;5039258;28;20034;-89
2023/03/12 09:40:53;;;;;;;2.25;1.08;;;4.00;99.90;;;;;;5025876;28;20044;-88
2023/03/12 09:43:38;;;;;;;2.95;0.80;;;4.10;99.90;;;;;;5022778;28;20056;-88
2023/03/12 09:46:12;;;;;;;1.98;0.85;;;4.20;99.90;;;;;;5016780;28;20063;-88
2023/03/12 09:48:38;;;;;;;3.50;0.90;;;4.30;99.90;;;;;;5029675;28;20034;-87
2023/03/12 09:51:19;;;;;;;3.67;1.52;;;4.40;99.90;;;;;;5027114;28;20018;-88
2023/03/12 09:53:53;;;;;;;3.58;1.65;;;4.50;99.90;;;;;;5025414;28;20078;-88
2023/03/12 09:56:20;;;;;;;4.03;1.55;;;4.50;99.90;;;;;;5048939;28;20314;-89
2023/03/12 09:58:47;;;;;;;3.35;1.35;;;4.60;99.90;;;;;;5014210;28;20048;-87
2023/03/12 10:01:32;;;;;;;3.60;2.22;;;4.70;99.90;;;;;;5022219;28;20029;-87
2023/03/12 10:04:06;;;;;;;4.80;2.17;;;4.90;99.90;;;;;;5032791;28;20033;-87
2023/03/12 10:06:49;;;;;;;4.00;2.78;;;5.10;99.90;;;;;;5011798;28;20035;-88
2023/03/12 10:09:35;;;;;;;5.78;2.97;;;5.30;99.90;;;;;;5006155;28;20423;-87
2023/03/12 10:12:18;;;;;;;4.57;2.80;;;5.30;99.90;;;;;;5005489;28;20099;-88
2023/03/12 10:15:03;;;;;;;4.20;2.17;;;5.30;99.90;;;;;;5038329;28;20036;-87
2023/03/12 10:17:53;;;;;;;5.05;3.80;;;5.40;99.90;;;;;;5033068;28;20043;-88
2023/03/12 10:20:24;;;;;;;6.40;2.45;;;5.50;99.90;;;;;;5022460;28;20041;-86
2023/03/12 10:23:20;;;;;;;5.75;2.78;;;5.60;99.90;;;;;;5044031;28;20028;-88
2023/03/12 10:25:55;;;;;;;4.45;2.75;;;5.70;99.90;;;;;;5017112;28;20204;-90
2023/03/12 10:28:59;;;;;;;3.88;2.45;;;5.90;99.90;;;;;;5024491;28;20052;-89
2023/03/12 10:31:33;;;;;;;3.78;2.38;;;6.00;99.90;;;;;;5051824;28;20037;-89
2023/03/12 10:34:02;;;;;;;3.00;1.70;;;6.10;99.90;;;;;;5023953;28;20082;-89
2023/03/12 10:36:40;;;;;;;4.85;2.30;;;6.20;99.90;;;;;;5038132;28;20032;-89
2023/03/12 10:39:14;;;;;;;5.00;2.40;;;6.20;99.90;;;;;;5027558;28;20068;-88
2023/03/12 10:41:43;;;;;;;5.68;3.42;;;6.20;99.90;;;;;;5029802;28;20082;-88
2023/03/12 10:44:17;;;;;;;5.63;2.97;;;6.30;99.90;;;;;;5009965;28;20092;-88
2023/03/12 10:47:06;;;;;;;5.47;3.83;;;6.30;99.90;;;;;;5029333;28;20032;-88
2023/03/12 10:49:34;;;;;;;6.10;3.85;;;6.40;99.90;;;;;;5014700;28;20108;-88
2023/03/12 10:52:04;;;;;;;8.02;5.35;;;6.50;99.90;;;;;;5028280;28;20515;-87
2023/03/12 10:54:39;;;;;;;9.55;5.05;;;6.60;99.90;;;;;;5022489;28;20052;-89
2023/03/12 10:57:06;;;;;;;7.35;4.20;;;6.70;99.90;;;;;;5013726;28;20040;-90
2023/03/12 10:59:35;;;;;;;4.78;4.10;;;6.70;99.90;;;;;;5019147;28;20505;-89
2023/03/12 11:02:02;;;;;;;4.53;3.03;;;6.80;99.90;;;;;;5040099;28;20053;-88
2023/03/12 11:04:32;;;;;;;5.03;3.13;;;6.80;99.90;;;;;;5032914;28;20049;-88
2023/03/12 11:07:26;;;;;;;6.47;4.50;;;6.90;99.90;;;;;;5007933;28;20501;-88
2023/03/12 11:10:07;;;;;;;5.45;4.32;;;7.10;99.90;;;;;;5033940;28;20045;-88
2023/03/12 11:12:38;;;;;;;6.38;4.28;;;7.20;99.90;;;;;;5008484;28;20466;-88
2023/03/12 11:15:27;;;;;;;10.40;6.50;;;7.30;99.90;;;;;;5017452;28;20040;-86
2023/03/12 11:18:21;;;;;;;10.27;6.93;;;7.50;99.90;;;;;;5026862;28;20037;-86
2023/03/12 11:21:07;;;;;;;8.88;5.63;;;7.50;99.90;;;;;;5041151;28;20034;-87
2023/03/12 11:23:34;;;;;;;9.80;6.97;;;7.60;99.90;;;;;;5031863;28;20048;-87
2023/03/12 11:26:03;;;;;;;12.98;9.50;;;7.70;99.90;;;;;;5038690;28;20025;-88
2023/03/12 11:28:37;;;;;;;13.15;8.25;;;7.70;99.90;;;;;;5012098;28;20060;-90
2023/03/12 11:31:08;;;;;;;14.05;9.18;;;7.70;99.90;;;;;;5033644;28;20028;-88
2023/03/12 11:33:34;;;;;;;10.48;7.70;;;7.80;99.90;;;;;;5010917;28;20617;-88
2023/03/12 11:36:16;;;;;;;10.60;7.55;;;7.90;99.90;;;;;;5031588;28;20100;-87
2023/03/12 11:38:45;;;;;;;10.85;7.43;;;8.00;99.90;;;;;;5017351;28;20040;-88
2023/03/12 11:41:40;;;;;;;13.27;7.72;;;8.10;99.90;;;;;;5018448;28;20030;-86
2023/03/12 11:44:15;;;;;;;19.27;11.05;;;8.20;99.90;;;;;;4988091;28;20038;-88
2023/03/12 11:47:08;;;;;;;20.48;11.13;;;8.20;99.90;;;;;;4988170;28;20093;-88
2023/03/12 11:50:12;;;;;;;19.95;10.23;;;8.30;99.90;;;;;;4969255;28;20043;-89
2023/03/12 11:52:43;;;;;;;21.73;10.68;;;8.40;99.90;;;;;;4985806;28;20081;-88
2023/03/12 11:55:40;;;;;;;24.30;11.48;;;8.40;99.90;;;;;;4986714;28;20057;-89
2023/03/12 11:58:11;;;;;;;20.73;11.52;;;8.60;99.90;;;;;;4983478;28;20664;-89
2023/03/12 12:00:45;;;;;;;21.25;10.80;;;8.70;99.90;;;;;;4987846;28;20126;-90
2023/03/12 12:03:30;;;;;;;22.55;11.25;;;8.80;99.90;;;;;;4986817;28;20026;-89
2023/03/12 12:06:15;;;;;;;23.23;10.85;;;8.80;99.90;;;;;;4986926;28;20031;-91
2023/03/12 12:08:46;;;;;;;21.50;9.02;;;8.80;99.90;;;;;;4967065;28;20156;-88
2023/03/12 12:11:26;;;;;;;23.95;9.23;;;8.90;99.90;;;;;;4973069;28;20026;-88
2023/03/12 12:14:05;;;;;;;17.85;8.50;;;8.90;99.90;;;;;;4969725;28;20078;-87
2023/03/12 12:16:41;;;;;;;17.88;6.50;;;9.00;99.90;;;;;;4955274;28;20057;-87
2023/03/12 12:19:42;;;;;;;18.98;6.30;;;9.00;99.90;;;;;;4970718;28;20034;-87
2023/03/12 12:22:22;;;;;;;12.77;5.55;;;9.00;99.90;;;;;;5025857;28;20048;-90
2023/03/12 12:25:24;;;;;;;11.50;5.40;;;9.10;99.90;;;;;;5026625;28;20029;-86
2023/03/12 12:28:21;;;;;;;18.90;5.97;;;9.10;99.90;;;;;;5029620;28;20050;-88
2023/03/12 12:31:24;;;;;;;22.25;6.43;;;9.20;99.90;;;;;;5011569;28;20030;-86
2023/03/12 12:34:13;;;;;;;13.82;4.25;;;9.30;99.90;;;;;;5018430;28;20043;-90
2023/03/12 12:36:41;;;;;;;15.05;5.32;;;9.50;99.90;;;;;;5025405;28;20127;-85
2023/03/12 12:39:14;;;;;;;19.02;4.78;;;9.50;99.90;;;;;;5033109;28;20124;-86
2023/03/12 12:42:05;;;;;;;18.08;4.82;;;9.70;99.90;;;;;;4987399;28;20053;-87
2023/03/12 12:44:46;;;;;;;17.20;4.72;;;9.60;99.90;;;;;;5001945;28;20135;-85
2023/03/12 12:47:18;;;;;;;22.35;5.03;;;9.60;99.90;;;;;;5010160;28;20048;-88
2023/03/12 12:49:56;;;;;;;18.08;3.63;;;9.50;99.90;;;;;;5026498;28;20436;-86
2023/03/12 12:52:22;;;;;;;18.98;3.65;;;9.40;99.90;;;;;;5011512;28;20033;-88
2023/03/12 12:54:50;;;;;;;17.60;3.63;;;9.40;99.90;;;;;;5026041;28;20045;-86
2023/03/12 12:57:27;;;;;;;21.77;4.45;;;9.30;99.90;;;;;;5015949;28;20037;-87
2023/03/12 13:00:30;;;;;;;19.67;4.18;;;9.30;99.90;;;;;;5024393;28;20616;-91
2023/03/12 13:02:56;;;;;;;20.92;3.13;;;9.30;99.90;;;;;;5033401;28;20083;-91
2023/03/12 13:05:45;;;;;;;26.85;3.83;;;9.30;99.90;;;;;;5026551;28;20032;-89
2023/03/12 13:08:30;;;;;;;22.17;3.10;;;9.50;99.90;;;;;;5043462;28;20825;-87
2023/03/12 13:10:56;;;;;;;18.55;2.95;;;9.60;99.90;;;;;;5008234;28;20030;-89